createdAt,value
2018-12-11T00:00:57.856Z,96621.05
2018-12-11T00:03:27.773Z,96625.47
2018-12-11T00:05:59.043Z,96619.87
2018-12-11T00:08:28.984Z,96621.02
2018-12-11T00:10:59.262Z,96621.86
2018-12-11T00:14:21.974Z,96617.02
2018-12-11T00:16:52.016Z,96620.91
2018-12-11T00:19:21.906Z,96616.76
2018-12-11T00:21:51.766Z,96616.05
2018-12-11T00:24:21.576Z,96622.57
2018-12-11T00:31:19.876Z,96624.34
2018-12-11T00:33:49.812Z,96617.61
2018-12-11T00:36:19.653Z,96617.55
2018-12-11T00:38:49.480Z,96618.28
2018-12-11T00:41:19.450Z,96622.66
2018-12-11T00:43:49.387Z,96619.11
2018-12-11T00:46:19.513Z,96611.98
2018-12-11T00:48:49.512Z,96625.00
2018-12-11T00:51:20.046Z,96619.31
2018-12-11T00:53:49.816Z,96623.45
2018-12-11T00:56:19.590Z,96627.31
2018-12-11T00:58:49.522Z,96619.63
2018-12-11T01:01:19.456Z,96627.49
2018-12-11T01:03:50.106Z,96625.84
2018-12-11T01:06:23.092Z,96637.70
2018-12-11T01:08:53.814Z,96642.66
2018-12-11T01:18:35.764Z,96646.36
2018-12-11T01:21:05.651Z,96648.44
2018-12-11T01:23:35.476Z,96649.08
2018-12-11T01:26:05.340Z,96635.81
2018-12-11T01:28:35.162Z,96637.95
2018-12-11T01:31:05.883Z,96635.48
2018-12-11T01:33:35.743Z,96635.88
2018-12-11T01:36:06.019Z,96636.76
2018-12-11T01:38:35.923Z,96642.02
2018-12-11T01:41:05.830Z,96641.89
2018-12-11T01:43:35.780Z,96648.09
2018-12-11T01:46:05.655Z,96641.66
2018-12-11T01:48:35.481Z,96647.24
2018-12-11T01:51:05.318Z,96649.78
2018-12-11T01:53:35.285Z,96654.25
2018-12-11T01:56:05.130Z,96651.55
2018-12-11T01:58:34.939Z,96662.14
2018-12-11T02:01:04.802Z,96656.52
2018-12-11T02:03:35.617Z,96662.69
2018-12-11T02:06:05.557Z,96664.49
2018-12-11T02:08:35.471Z,96660.46
2018-12-11T02:11:05.333Z,96648.85
2018-12-11T02:13:35.199Z,96654.45
2018-12-11T02:16:05.101Z,96653.73
2018-12-11T02:18:34.975Z,96655.63
2018-12-11T02:21:04.801Z,96656.42
2018-12-11T02:23:34.784Z,96656.67
2018-12-11T02:26:04.596Z,96663.95
2018-12-11T02:28:34.547Z,96662.39
2018-12-11T02:31:04.399Z,96662.56
2018-12-11T02:33:34.758Z,96663.50
2018-12-11T02:36:04.683Z,96666.27
2018-12-11T02:38:34.555Z,96660.27
2018-12-11T02:41:04.416Z,96663.50
2018-12-11T02:43:34.796Z,96666.10
2018-12-11T02:46:04.671Z,96661.69
2018-12-11T02:48:34.761Z,96657.78
2018-12-11T02:51:04.589Z,96663.33
2018-12-11T02:53:34.686Z,96660.63
2018-12-11T02:56:05.264Z,96664.13
2018-12-11T02:58:35.059Z,96659.34
2018-12-11T03:01:04.862Z,96667.45
2018-12-11T03:03:34.687Z,96669.51
2018-12-11T03:06:21.863Z,96671.09
2018-12-11T03:08:51.633Z,96669.29
2018-12-11T03:11:21.938Z,96675.54
2018-12-11T03:13:51.859Z,96675.07
2018-12-11T03:16:21.696Z,96681.79
2018-12-11T03:22:27.319Z,96680.42
2018-12-11T03:24:57.233Z,96683.83
2018-12-11T03:27:27.129Z,96681.84
2018-12-11T03:29:57.000Z,96682.23
2018-12-11T03:32:26.945Z,96681.60
2018-12-11T03:34:57.082Z,96687.52
2018-12-11T03:37:26.937Z,96692.02
2018-12-11T03:39:56.735Z,96686.42
2018-12-11T03:42:26.545Z,96690.99
2018-12-11T03:44:56.349Z,96689.09
2018-12-11T03:54:38.337Z,96696.20
2018-12-11T03:57:08.332Z,96696.66
2018-12-11T03:59:38.111Z,96697.97
2018-12-11T04:02:08.451Z,96699.14
2018-12-11T04:04:38.303Z,96694.56
2018-12-11T04:09:35.046Z,96695.30
2018-12-11T04:12:05.931Z,96690.83
2018-12-11T04:14:36.606Z,96691.53
2018-12-11T04:17:06.855Z,96697.01
2018-12-11T04:19:36.784Z,96689.81
2018-12-11T04:22:06.697Z,96697.55
2018-12-11T04:24:36.488Z,96697.95
2018-12-11T04:27:06.253Z,96696.74
2018-12-11T04:29:36.029Z,96706.42
2018-12-11T04:32:06.228Z,96710.45
2018-12-11T04:34:36.074Z,96698.72
2018-12-11T04:37:05.898Z,96700.56
2018-12-11T04:39:35.748Z,96709.36
2018-12-11T04:42:06.537Z,96711.03
2018-12-11T04:44:36.570Z,96712.41
2018-12-11T04:47:06.841Z,96713.09
2018-12-11T04:49:36.644Z,96703.81
2018-12-11T04:52:06.412Z,96713.73
2018-12-11T04:54:36.330Z,96716.08
2018-12-11T04:57:06.310Z,96712.72
2018-12-11T04:59:36.688Z,96716.45
2018-12-11T05:02:06.821Z,96709.78
2018-12-11T05:04:36.663Z,96704.52
2018-12-11T05:07:06.474Z,96711.56
2018-12-11T05:09:36.250Z,96712.20
2018-12-11T05:12:06.074Z,96710.92
2018-12-11T05:14:35.924Z,96709.14
2018-12-11T05:17:05.744Z,96711.92
2018-12-11T05:19:35.719Z,96712.17
2018-12-11T05:22:05.572Z,96715.87
2018-12-11T05:24:35.330Z,96711.38
2018-12-11T05:27:05.140Z,96712.78
2018-12-11T05:29:34.960Z,96707.55
2018-12-11T05:35:40.848Z,96716.67
2018-12-11T05:38:10.648Z,96715.94
2018-12-11T05:40:40.486Z,96716.30
2018-12-11T05:43:10.390Z,96713.91
2018-12-11T05:45:40.194Z,96713.30
2018-12-11T05:48:10.146Z,96710.03
2018-12-11T05:50:39.930Z,96716.45
2018-12-11T05:53:09.783Z,96711.84
2018-12-11T05:55:39.709Z,96713.64
2018-12-11T05:58:09.594Z,96718.20
2018-12-11T06:00:39.932Z,96715.11
2018-12-11T06:03:09.858Z,96719.23
2018-12-11T06:05:39.732Z,96714.95
2018-12-11T06:08:09.508Z,96718.95
2018-12-11T06:10:39.812Z,96711.95
2018-12-11T06:13:09.934Z,96718.16
2018-12-11T06:15:39.736Z,96716.98
2018-12-11T06:18:09.640Z,96719.35
2018-12-11T06:20:39.500Z,96731.06
2018-12-11T06:23:09.384Z,96725.78
2018-12-11T06:25:39.258Z,96724.30
2018-12-11T06:28:09.067Z,96730.38
2018-12-11T06:30:38.953Z,96726.43
2018-12-11T06:33:08.793Z,96721.22
2018-12-11T06:35:38.709Z,96716.16
2018-12-11T06:38:08.557Z,96721.70
2018-12-11T06:40:38.442Z,96727.45
2018-12-11T06:43:08.354Z,96728.13
2018-12-11T06:45:38.145Z,96727.50
2018-12-11T06:48:08.006Z,96726.31
2018-12-11T06:50:37.813Z,96726.07
2018-12-11T06:53:07.791Z,96721.94
2018-12-11T06:55:37.551Z,96728.58
2018-12-11T06:58:07.453Z,96726.23
2018-12-11T07:00:37.327Z,96727.02
2018-12-11T07:03:07.268Z,96730.59
2018-12-11T07:05:37.145Z,96736.11
2018-12-11T07:08:07.329Z,96733.86
2018-12-11T07:11:19.205Z,96737.45
2018-12-11T07:13:49.010Z,96747.06
2018-12-11T07:16:18.826Z,96743.56
2018-12-11T07:18:48.676Z,96738.84
2018-12-11T07:21:18.446Z,96739.33
2018-12-11T07:23:48.339Z,96740.92
2018-12-11T07:26:18.497Z,96744.84
2018-12-11T07:28:48.605Z,96744.16
2018-12-11T07:31:18.350Z,96756.27
2018-12-11T07:33:50.782Z,96754.04
2018-12-11T07:36:19.986Z,96756.78
2018-12-11T07:38:49.871Z,96749.28
2018-12-11T07:41:19.718Z,96745.03
2018-12-11T07:43:49.768Z,96743.81
2018-12-11T07:46:19.570Z,96741.42
2018-12-11T07:48:49.565Z,96741.05
2018-12-11T07:51:19.429Z,96742.03
2018-12-11T07:53:49.264Z,96737.93
2018-12-11T07:57:19.906Z,96739.19
2018-12-11T07:59:49.914Z,96738.45
2018-12-11T08:02:19.706Z,96735.67
2018-12-11T08:04:49.588Z,96740.38
2018-12-11T08:07:19.382Z,96731.23
2018-12-11T08:09:49.259Z,96734.65
2018-12-11T08:12:19.138Z,96735.16
2018-12-11T08:14:48.897Z,96738.98
2018-12-11T08:17:18.739Z,96741.66
2018-12-11T08:20:19.350Z,96742.46
2018-12-11T08:22:49.175Z,96738.42
2018-12-11T08:25:19.440Z,96744.14
2018-12-11T08:27:49.264Z,96736.40
2018-12-11T08:30:19.852Z,96746.49
2018-12-11T08:32:49.732Z,96750.62
2018-12-11T08:35:19.559Z,96744.42
2018-12-11T08:37:49.392Z,96751.20
2018-12-11T08:40:19.352Z,96747.53
2018-12-11T08:42:49.780Z,96744.39
2018-12-11T08:45:19.817Z,96749.13
2018-12-11T08:47:49.569Z,96748.17
2018-12-11T08:50:19.441Z,96745.83
2018-12-11T08:52:49.361Z,96744.07
2018-12-11T08:55:19.173Z,96742.16
2018-12-11T08:57:49.509Z,96737.47
2018-12-11T09:00:19.365Z,96732.15
2018-12-11T09:02:49.181Z,96734.14
2018-12-11T09:05:18.954Z,96732.82
2018-12-11T09:07:48.840Z,96742.61
2018-12-11T09:10:18.986Z,96740.02
2018-12-11T09:12:48.961Z,96742.52
2018-12-11T09:15:18.757Z,96746.87
2018-12-11T09:17:48.647Z,96744.27
2018-12-11T09:20:18.412Z,96750.69
2018-12-11T09:22:48.320Z,96738.05
2018-12-11T09:25:18.518Z,96747.81
2018-12-11T09:27:48.300Z,96752.88
2018-12-11T09:30:18.073Z,96750.97
2018-12-11T09:32:47.879Z,96751.28
2018-12-11T09:35:17.774Z,96748.79
2018-12-11T09:37:47.585Z,96745.34
2018-12-11T09:40:17.399Z,96748.42
2018-12-11T09:42:47.269Z,96757.36
2018-12-11T09:45:17.683Z,96754.12
2018-12-11T09:47:47.462Z,96753.08
2018-12-11T09:50:17.273Z,96754.91
2018-12-11T09:52:47.053Z,96745.50
2018-12-11T09:55:16.919Z,96750.48
2018-12-11T09:57:46.808Z,96752.09
2018-12-11T10:00:19.276Z,96748.44
2018-12-11T10:02:49.134Z,96750.12
2018-12-11T10:05:18.967Z,96752.52
2018-12-11T10:07:48.744Z,96748.58
2018-12-11T10:10:18.559Z,96751.64
2018-12-11T10:12:48.410Z,96741.73
2018-12-11T10:15:18.538Z,96740.94
2018-12-11T10:23:01.014Z,96732.02
2018-12-11T10:25:30.888Z,96729.22
2018-12-11T10:28:00.722Z,96740.38
2018-12-11T10:33:10.852Z,96738.02
2018-12-11T10:35:40.656Z,96738.23
2018-12-11T10:38:11.252Z,96729.23
2018-12-11T10:40:41.104Z,96728.90
2018-12-11T10:43:10.889Z,96728.22
2018-12-11T10:45:41.289Z,96726.31
2018-12-11T10:48:11.067Z,96725.98
2018-12-11T10:50:40.851Z,96725.75
2018-12-11T10:53:10.746Z,96716.39
2018-12-11T10:55:40.591Z,96713.01
2018-12-11T10:58:10.898Z,96712.36
2018-12-11T11:00:44.741Z,96712.34
2018-12-11T11:03:14.687Z,96711.75
2018-12-11T11:05:44.490Z,96703.87
2018-12-11T11:08:14.329Z,96702.16
2018-12-11T11:10:44.459Z,96704.51
2018-12-11T11:13:14.293Z,96695.28
2018-12-11T11:15:44.074Z,96699.06
2018-12-11T11:18:15.006Z,96692.58
2018-12-11T11:20:44.797Z,96692.02
2018-12-11T11:23:14.722Z,96684.61
2018-12-11T11:25:44.528Z,96682.32
2018-12-11T11:28:14.344Z,96686.67
2018-12-11T11:30:44.205Z,96679.38
2018-12-11T11:33:14.027Z,96674.28
2018-12-11T11:35:43.984Z,96671.08
2018-12-11T11:38:13.880Z,96667.67
2018-12-11T11:40:43.624Z,96664.50
2018-12-11T11:43:13.721Z,96666.54
2018-12-11T11:45:43.528Z,96666.81
2018-12-11T11:48:13.507Z,96656.84
2018-12-11T11:50:44.343Z,96657.60
2018-12-11T11:53:14.615Z,96652.75
2018-12-11T11:55:44.437Z,96649.67
2018-12-11T11:58:14.295Z,96641.81
2018-12-11T12:00:44.651Z,96648.04
2018-12-11T12:03:14.473Z,96643.11
2018-12-11T12:05:44.311Z,96640.59
2018-12-11T12:08:14.097Z,96635.11
2018-12-11T12:10:43.851Z,96636.77
2018-12-11T12:13:14.177Z,96629.14
2018-12-11T12:15:44.037Z,96628.50
2018-12-11T12:18:13.833Z,96619.95
2018-12-11T12:20:43.620Z,96615.53
2018-12-11T12:23:13.740Z,96615.87
2018-12-11T12:25:43.532Z,96615.53
2018-12-11T12:28:13.322Z,96611.96
2018-12-11T12:30:43.960Z,96611.84
2018-12-11T12:33:13.760Z,96599.69
2018-12-11T12:35:43.920Z,96599.70
2018-12-11T12:38:13.978Z,96604.53
2018-12-11T12:40:43.737Z,96604.42
2018-12-11T12:43:13.486Z,96603.73
2018-12-11T12:45:43.287Z,96598.69
2018-12-11T12:48:13.065Z,96594.40
2018-12-11T12:50:42.844Z,96595.88
2018-12-11T12:53:12.652Z,96597.19
2018-12-11T12:55:42.474Z,96599.09
2018-12-11T12:58:13.637Z,96596.95
2018-12-11T13:00:44.951Z,96594.61
2018-12-11T13:03:14.950Z,96595.43
2018-12-11T13:05:44.708Z,96596.08
2018-12-11T13:08:14.671Z,96592.34
2018-12-11T13:10:44.430Z,96601.98
2018-12-11T13:13:14.396Z,96590.51
2018-12-11T13:15:45.180Z,96593.19
2018-12-11T13:18:15.118Z,96596.38
2018-12-11T13:20:45.137Z,96599.91
2018-12-11T13:23:14.985Z,96591.73
2018-12-11T13:25:45.698Z,96595.05
2018-12-11T13:28:15.511Z,96597.08
2018-12-11T13:30:45.404Z,96596.64
2018-12-11T13:33:15.253Z,96602.71
2018-12-11T13:35:45.385Z,96603.30
2018-12-11T13:38:15.208Z,96597.68
2018-12-11T13:40:45.417Z,96599.92
2018-12-11T13:43:15.265Z,96596.88
2018-12-11T13:45:45.185Z,96598.11
2018-12-11T13:48:15.714Z,96599.02
2018-12-11T13:50:45.951Z,96599.48
2018-12-11T13:53:15.795Z,96607.58
2018-12-11T13:55:45.965Z,96605.78
2018-12-11T13:58:16.439Z,96606.22
2018-12-11T14:00:46.663Z,96602.84
2018-12-11T14:03:16.508Z,96605.09
2018-12-11T14:05:46.291Z,96604.86
2018-12-11T14:08:16.066Z,96602.52
2018-12-11T14:10:45.985Z,96600.26
2018-12-11T14:13:15.771Z,96599.91
2018-12-11T14:15:45.552Z,96607.34
2018-12-11T14:18:15.407Z,96603.30
2018-12-11T14:20:45.182Z,96605.86
2018-12-11T14:23:15.019Z,96605.73
2018-12-11T14:25:45.125Z,96606.06
2018-12-11T14:28:14.931Z,96606.17
2018-12-11T14:30:44.884Z,96608.26
2018-12-11T14:33:14.684Z,96602.75
2018-12-11T14:35:44.922Z,96599.62
2018-12-11T14:38:14.718Z,96595.72
2018-12-11T14:40:44.606Z,96596.05
2018-12-11T14:43:14.589Z,96594.21
2018-12-11T14:45:44.728Z,96592.85
2018-12-11T14:48:14.586Z,96584.56
2018-12-11T14:50:44.398Z,96588.65
2018-12-11T14:53:14.196Z,96590.00
2018-12-11T14:55:44.628Z,96590.91
2018-12-11T14:58:14.382Z,96584.97
2018-12-11T15:00:44.170Z,96588.91
2018-12-11T15:03:14.639Z,96580.92
2018-12-11T15:05:45.328Z,96584.29
2018-12-11T15:08:15.509Z,96585.08
2018-12-11T15:10:46.142Z,96584.96
2018-12-11T15:13:15.969Z,96587.44
2018-12-11T15:15:45.742Z,96583.17
2018-12-11T15:18:15.548Z,96577.41
2018-12-11T15:20:45.391Z,96576.70
2018-12-11T15:23:15.218Z,96577.72
2018-12-11T15:25:44.994Z,96570.73
2018-12-11T15:28:14.745Z,96571.16
2018-12-11T15:30:44.479Z,96571.80
2018-12-11T15:33:14.252Z,96573.94
2018-12-11T15:35:44.154Z,96568.49
2018-12-11T15:38:13.940Z,96572.05
2018-12-11T15:40:44.126Z,96575.52
2018-12-11T15:43:14.722Z,96574.34
2018-12-11T15:45:44.497Z,96578.28
2018-12-11T15:48:14.256Z,96572.56
2018-12-11T15:50:44.033Z,96576.91
2018-12-11T15:53:14.208Z,96575.12
2018-12-11T15:55:44.053Z,96577.52
2018-12-11T15:58:13.827Z,96576.66
2018-12-11T16:00:43.670Z,96570.58
2018-12-11T16:03:13.444Z,96578.66
2018-12-11T16:05:43.390Z,96579.75
2018-12-11T16:08:13.176Z,96577.61
2018-12-11T16:10:43.060Z,96578.55
2018-12-11T16:13:13.048Z,96571.11
2018-12-11T16:15:42.940Z,96580.43
2018-12-11T16:18:12.733Z,96580.79
2018-12-11T16:20:42.480Z,96586.41
2018-12-11T16:23:12.264Z,96587.42
2018-12-11T16:25:42.284Z,96587.95
2018-12-11T16:28:12.062Z,96582.97
2018-12-11T16:30:41.790Z,96584.66
2018-12-11T16:33:11.923Z,96584.17
2018-12-11T16:35:43.083Z,96593.33
2018-12-11T16:42:23.590Z,96601.72
2018-12-11T16:44:53.387Z,96593.72
2018-12-11T16:47:23.226Z,96595.46
2018-12-11T16:49:53.011Z,96597.94
2018-12-11T16:52:22.991Z,96600.34
2018-12-11T16:54:52.843Z,96601.81
2018-12-11T16:57:23.620Z,96603.00
2018-12-11T16:59:53.403Z,96602.55
2018-12-11T17:02:23.155Z,96606.75
2018-12-11T17:04:53.098Z,96608.92
2018-12-11T17:07:23.604Z,96609.71
2018-12-11T17:09:54.070Z,96610.88
2018-12-11T17:12:24.410Z,96614.00
2018-12-11T17:14:54.975Z,96609.69
2018-12-11T17:17:25.673Z,96615.64
2018-12-11T17:19:55.555Z,96616.06
2018-12-11T17:22:25.310Z,96606.30
2018-12-11T17:24:55.216Z,96605.70
2018-12-11T17:27:25.043Z,96600.78
2018-12-11T17:29:54.973Z,96605.54
2018-12-11T17:32:24.831Z,96602.66
2018-12-11T17:36:24.547Z,96602.03
2018-12-11T17:38:54.350Z,96601.55
2018-12-11T17:41:24.204Z,96602.41
2018-12-11T17:43:54.036Z,96605.90
2018-12-11T17:46:23.809Z,96602.41
2018-12-11T17:48:53.756Z,96612.88
2018-12-11T17:51:23.679Z,96610.52
2018-12-11T17:53:53.484Z,96605.31
2018-12-11T17:56:23.352Z,96611.48
2018-12-11T17:58:53.221Z,96611.23
2018-12-11T18:01:25.315Z,96610.98
2018-12-11T18:03:55.245Z,96614.84
2018-12-11T18:06:25.171Z,96620.63
2018-12-11T18:08:54.988Z,96617.23
2018-12-11T18:11:25.000Z,96616.77
2018-12-11T18:13:54.771Z,96617.02
2018-12-11T18:16:25.011Z,96609.25
2018-12-11T18:18:55.213Z,96609.89
2018-12-11T18:21:25.369Z,96607.15
2018-12-11T18:23:55.265Z,96610.59
2018-12-11T18:26:25.236Z,96614.33
2018-12-11T18:28:55.127Z,96609.27
2018-12-11T18:31:25.421Z,96609.19
2018-12-11T18:33:55.433Z,96609.34
2018-12-11T18:36:26.790Z,96613.03
2018-12-11T18:38:56.659Z,96604.98
2018-12-11T18:41:27.101Z,96606.11
2018-12-11T18:43:57.136Z,96608.98
2018-12-11T18:46:27.063Z,96614.94
2018-12-11T18:48:57.495Z,96616.50
2018-12-11T18:51:28.193Z,96619.12
2018-12-11T18:57:34.491Z,96617.70
2018-12-11T19:00:05.634Z,96616.31
2018-12-11T19:02:35.844Z,96616.78
2018-12-11T19:05:07.022Z,96609.34
2018-12-11T19:07:36.856Z,96602.84
2018-12-11T19:10:07.794Z,96607.22
2018-12-11T19:12:37.562Z,96607.09
2018-12-11T19:15:08.981Z,96601.80
2018-12-11T19:17:38.770Z,96603.59
2018-12-11T19:20:10.085Z,96606.41
2018-12-11T19:22:39.861Z,96602.54
2018-12-11T19:25:15.930Z,96596.03
2018-12-11T19:27:45.950Z,96598.52
2018-12-11T19:30:16.329Z,96601.93
2018-12-11T19:32:47.178Z,96604.34
2018-12-11T19:35:17.474Z,96596.30
2018-12-11T19:37:47.452Z,96591.67
2018-12-11T19:42:48.273Z,96590.98
2018-12-11T19:45:18.965Z,96587.00
2018-12-11T19:47:48.902Z,96592.02
2018-12-11T19:50:18.772Z,96580.81
2018-12-11T19:52:48.711Z,96584.66
2018-12-11T19:55:18.667Z,96579.08
2018-12-11T19:57:48.584Z,96581.72
2018-12-11T20:00:18.603Z,96582.41
2018-12-11T20:02:48.615Z,96586.87
2018-12-11T20:05:18.903Z,96579.72
2018-12-11T20:07:48.972Z,96579.69
2018-12-11T20:10:21.058Z,96577.44
2018-12-11T20:12:51.053Z,96576.47
2018-12-11T20:15:21.019Z,96575.16
2018-12-11T20:17:50.888Z,96576.44
2018-12-11T20:20:28.309Z,96575.31
2018-12-11T20:22:58.616Z,96573.53
2018-12-11T20:25:28.717Z,96577.63
2018-12-11T20:27:58.761Z,96581.87
2018-12-11T20:30:28.751Z,96580.13
2018-12-11T20:32:58.692Z,96583.17
2018-12-11T20:35:28.635Z,96578.86
2018-12-11T20:37:58.796Z,96579.73
2018-12-11T20:40:29.635Z,96579.27
2018-12-11T20:43:00.494Z,96584.44
2018-12-11T20:45:30.456Z,96580.23
2018-12-11T20:48:00.600Z,96574.30
2018-12-11T20:50:30.904Z,96573.53
2018-12-11T20:53:01.028Z,96567.48
2018-12-11T20:55:31.201Z,96573.46
2018-12-11T20:58:01.128Z,96568.17
2018-12-11T21:00:34.115Z,96561.80
2018-12-11T21:03:04.544Z,96556.08
2018-12-11T21:05:34.344Z,96554.19
2018-12-11T21:08:04.227Z,96555.03
2018-12-11T21:10:34.330Z,96556.91
2018-12-11T21:13:04.527Z,96557.89
2018-12-11T21:15:34.292Z,96560.25
2018-12-11T21:18:04.052Z,96553.25
2018-12-11T21:20:33.868Z,96555.61
2018-12-11T21:23:03.681Z,96558.25
2018-12-11T21:25:34.058Z,96563.69
2018-12-11T21:28:04.181Z,96560.42
2018-12-11T21:30:34.296Z,96559.30
2018-12-11T21:33:04.131Z,96558.66
2018-12-11T21:35:34.249Z,96559.77
2018-12-11T21:38:04.096Z,96560.53
2018-12-11T21:42:03.423Z,96572.72
2018-12-11T21:44:33.751Z,96572.11
2018-12-11T21:47:03.933Z,96567.80
2018-12-11T21:49:34.241Z,96565.81
2018-12-11T21:52:04.358Z,96566.28
2018-12-11T21:54:34.277Z,96561.03
2018-12-11T21:57:04.093Z,96561.00
2018-12-11T21:59:33.971Z,96562.28
2018-12-11T22:02:03.783Z,96562.00
2018-12-11T22:04:33.597Z,96569.02
2018-12-11T22:07:03.476Z,96567.14
2018-12-11T22:09:33.257Z,96565.32
2018-12-11T22:12:04.302Z,96565.26
2018-12-11T22:14:34.069Z,96563.50
2018-12-11T22:17:04.370Z,96555.89
2018-12-11T22:19:34.199Z,96558.02
2018-12-11T22:22:04.060Z,96552.67
2018-12-11T22:24:33.861Z,96564.91
2018-12-11T22:27:03.688Z,96571.22
2018-12-11T22:29:33.641Z,96567.14
2018-12-11T22:32:03.443Z,96568.66
2018-12-11T22:34:33.402Z,96572.88
2018-12-11T22:37:03.434Z,96564.59
2018-12-11T22:39:33.327Z,96563.70
2018-12-11T22:42:03.314Z,96567.52
2018-12-11T22:44:33.600Z,96567.39
2018-12-11T22:47:03.659Z,96571.15
2018-12-11T22:49:34.181Z,96568.25
2018-12-11T22:52:04.180Z,96565.92
2018-12-11T22:54:34.565Z,96569.88
2018-12-11T22:57:04.759Z,96573.34
2018-12-11T22:59:34.664Z,96580.45
2018-12-11T23:02:04.619Z,96578.52
2018-12-11T23:04:34.595Z,96586.38
2018-12-11T23:07:04.801Z,96576.15
2018-12-11T23:09:34.917Z,96574.62
2018-12-11T23:12:05.026Z,96587.59
2018-12-11T23:14:35.273Z,96585.70
2018-12-11T23:17:05.097Z,96581.70
2018-12-11T23:19:35.169Z,96580.23
2018-12-11T23:25:40.825Z,96580.41
2018-12-11T23:28:10.835Z,96576.27
2018-12-11T23:30:40.631Z,96578.94
2018-12-11T23:33:11.136Z,96578.49
2018-12-11T23:35:41.214Z,96579.80
2018-12-11T23:41:47.438Z,96580.58
2018-12-11T23:44:17.286Z,96588.05
2018-12-11T23:46:47.177Z,96584.38
2018-12-11T23:49:17.000Z,96581.25
2018-12-11T23:51:46.894Z,96581.57
2018-12-11T23:54:16.926Z,96587.70
2018-12-11T23:56:46.742Z,96588.22
2018-12-11T23:59:16.630Z,96585.73
